Time,TemperatureF,DewpointF,PressureIn,WindDirection,WindDirectionDegrees,WindSpeedMPH,WindSpeedGustMPH,Humidity,HourlyPrecipIn,Conditions,Clouds,dailyrainin,SolarRadiationWatts/m^2,SoftwareType,DateUTC
2013-02-28 00:01:00,48.8,41.9,30.34,North,9,0.0,0.0,77,0.00,,,0.00,0.0,WeatherDisplay:10.37,2013-02-28 08:01:00,
2013-02-28 00:06:00,48.7,41.8,30.34,North,9,0.0,0.0,77,0.00,,,0.00,0.0,WeatherDisplay:10.37,2013-02-28 08:06:00,
2013-02-28 00:11:00,48.8,41.9,30.34,North,9,0.0,0.0,77,0.00,,,0.00,0.0,WeatherDisplay:10.37,2013-02-28 08:11:00,
2013-02-28 00:16:00,48.9,42.0,30.34,North,9,0.0,0.0,77,0.00,,,0.00,0.0,WeatherDisplay:10.37,2013-02-28 08:16:00,
2013-02-28 00:21:00,48.8,41.9,30.34,North,9,0.0,0.0,77,0.00,,,0.00,0.0,WeatherDisplay:10.37,2013-02-28 08:21:00,
2013-02-28 00:26:00,48.8,41.9,30.34,North,9,0.0,0.0,77,0.00,,,0.00,0.0,WeatherDisplay:10.37,2013-02-28 08:26:00,
2013-02-28 00:31:00,48.8,42.2,30.34,North,9,0.0,0.0,78,0.00,,,0.00,0.0,WeatherDisplay:10.37,2013-02-28 08:31:00,
2013-02-28 00:36:00,48.9,42.3,30.35,North,9,0.0,0.0,78,0.00,,,0.00,0.0,WeatherDisplay:10.37,2013-02-28 08:36:00,
2013-02-28 00:41:00,49.1,42.5,30.34,North,9,0.0,0.0,78,0.00,,,0.00,0.0,WeatherDisplay:10.37,2013-02-28 08:41:00,
2013-02-28 00:46:00,49.2,42.6,30.34,North,9,0.0,0.0,78,0.00,,,0.00,0.0,WeatherDisplay:10.37,2013-02-28 08:46:00,
2013-02-28 00:51:00,49.2,42.3,30.35,North,9,0.0,0.0,77,0.00,,,0.00,0.0,WeatherDisplay:10.37,2013-02-28 08:51:00,
2013-02-28 00:56:00,49.2,42.6,30.35,North,9,0.0,0.0,78,0.00,,,0.00,0.0,WeatherDisplay:10.37,2013-02-28 08:56:00,
2013-02-28 01:01:00,49.2,42.3,30.35,North,9,0.0,0.0,77,0.00,,,0.00,0.0,WeatherDisplay:10.37,2013-02-28 09:01:00,
2013-02-28 01:06:00,49.1,42.5,30.35,North,9,0.0,0.0,78,0.00,,,0.00,0.0,WeatherDisplay:10.37,2013-02-28 09:06:00,
2013-02-28 01:12:00,49.0,42.4,30.35,North,9,0.0,0.0,78,0.00,,,0.00,0.0,WeatherDisplay:10.37,2013-02-28 09:12:00,
2013-02-28 01:17:00,49.0,42.4,30.35,North,9,0.0,0.0,78,0.00,,,0.00,0.0,WeatherDisplay:10.37,2013-02-28 09:17:00,
2013-02-28 01:22:00,49.0,42.4,30.35,North,9,0.0,0.0,78,0.00,,,0.00,0.0,WeatherDisplay:10.37,2013-02-28 09:22:00,
2013-02-28 01:27:00,49.0,42.4,30.35,North,9,0.0,0.0,78,0.00,,,0.00,0.0,WeatherDisplay:10.37,2013-02-28 09:27:00,
2013-02-28 01:32:00,48.9,42.7,30.35,North,9,0.0,1.2,79,0.00,,,0.00,0.0,WeatherDisplay:10.37,2013-02-28 09:32:00,
2013-02-28 01:37:00,49.0,42.8,30.35,North,9,0.0,0.0,79,0.00,,,0.00,0.0,WeatherDisplay:10.37,2013-02-28 09:37:00,
2013-02-28 01:42:00,49.0,42.8,30.35,North,9,0.0,0.0,79,0.00,,,0.00,0.0,WeatherDisplay:10.37,2013-02-28 09:42:00,
2013-02-28 01:47:00,49.0,43.1,30.35,North,9,0.0,0.0,80,0.00,,,0.00,0.0,WeatherDisplay:10.37,2013-02-28 09:47:00,
2013-02-28 01:52:00,49.0,43.1,30.35,North,9,0.0,1.2,80,0.00,,,0.00,0.0,WeatherDisplay:10.37,2013-02-28 09:52:00,
2013-02-28 01:57:00,49.0,43.1,30.36,North,9,0.4,1.2,80,0.00,,,0.00,0.0,WeatherDisplay:10.37,2013-02-28 09:57:00,
2013-02-28 02:02:00,48.6,42.7,30.35,North,9,0.0,0.0,80,0.00,,,0.00,0.0,WeatherDisplay:10.37,2013-02-28 10:02:00,
2013-02-28 02:07:00,48.5,42.9,30.35,North,9,0.0,0.0,81,0.00,,,0.00,0.0,WeatherDisplay:10.37,2013-02-28 10:07:00,
2013-02-28 02:13:00,48.3,42.7,30.36,North,9,0.0,0.0,81,0.00,,,0.00,0.0,WeatherDisplay:10.37,2013-02-28 10:13:00,
2013-02-28 02:18:00,48.1,42.5,30.35,North,9,0.0,0.0,81,0.00,,,0.00,0.0,WeatherDisplay:10.37,2013-02-28 10:18:00,
2013-02-28 02:23:00,48.0,42.4,30.35,North,9,0.0,0.0,81,0.00,,,0.00,0.0,WeatherDisplay:10.37,2013-02-28 10:23:00,
2013-02-28 02:28:00,48.1,42.9,30.35,North,9,0.0,0.0,82,0.00,,,0.00,0.0,WeatherDisplay:10.37,2013-02-28 10:28:00,
2013-02-28 02:33:00,48.0,42.8,30.35,North,9,0.0,0.0,82,0.00,,,0.00,0.0,WeatherDisplay:10.37,2013-02-28 10:33:00,
2013-02-28 02:38:00,48.1,42.9,30.35,North,9,0.0,1.2,82,0.00,,,0.00,0.0,WeatherDisplay:10.37,2013-02-28 10:38:00,
2013-02-28 02:43:00,48.2,43.0,30.35,North,9,0.0,0.0,82,0.00,,,0.00,0.0,WeatherDisplay:10.37,2013-02-28 10:43:00,
2013-02-28 02:48:00,48.2,43.0,30.35,North,9,0.0,0.0,82,0.00,,,0.00,0.0,WeatherDisplay:10.37,2013-02-28 10:48:00,
2013-02-28 02:53:00,48.1,42.9,30.35,North,9,0.0,0.0,82,0.00,,,0.00,0.0,WeatherDisplay:10.37,2013-02-28 10:53:00,
2013-02-28 02:58:00,48.0,42.8,30.35,North,9,0.0,0.0,82,0.00,,,0.00,0.0,WeatherDisplay:10.37,2013-02-28 10:58:00,
2013-02-28 03:03:00,47.9,42.7,30.35,North,9,0.0,0.0,82,0.00,,,0.00,0.0,WeatherDisplay:10.37,2013-02-28 11:03:00,
2013-02-28 03:08:00,47.7,42.5,30.35,North,9,0.0,0.0,82,0.00,,,0.00,0.0,WeatherDisplay:10.37,2013-02-28 11:08:00,
2013-02-28 03:13:00,47.6,42.4,30.35,North,9,0.0,0.0,82,0.00,,,0.00,0.0,WeatherDisplay:10.37,2013-02-28 11:13:00,
2013-02-28 03:18:00,47.7,42.8,30.35,North,9,0.0,0.0,83,0.00,,,0.00,0.0,WeatherDisplay:10.37,2013-02-28 11:18:00,
2013-02-28 03:23:00,47.7,42.8,30.35,North,9,0.0,0.0,83,0.00,,,0.00,0.0,WeatherDisplay:10.37,2013-02-28 11:23:00,
2013-02-28 03:28:00,47.3,42.4,30.35,North,9,0.0,0.0,83,0.00,,,0.00,0.0,WeatherDisplay:10.37,2013-02-28 11:28:00,
2013-02-28 03:33:00,47.1,42.2,30.35,North,9,0.0,0.0,83,0.00,,,0.00,0.0,WeatherDisplay:10.37,2013-02-28 11:33:00,
2013-02-28 03:38:00,47.0,42.4,30.35,North,9,0.0,0.0,84,0.00,,,0.00,0.0,WeatherDisplay:10.37,2013-02-28 11:38:00,
2013-02-28 03:43:00,46.7,41.8,30.35,North,9,0.0,0.0,83,0.00,,,0.00,0.0,WeatherDisplay:10.37,2013-02-28 11:43:00,
2013-02-28 03:48:00,46.5,41.9,30.35,North,9,0.0,0.0,84,0.00,,,0.00,0.0,WeatherDisplay:10.37,2013-02-28 11:48:00,
2013-02-28 03:53:00,46.4,41.8,30.35,North,9,0.0,0.0,84,0.00,,,0.00,0.0,WeatherDisplay:10.37,2013-02-28 11:53:00,
2013-02-28 03:58:00,46.1,41.5,30.35,North,9,0.0,0.0,84,0.00,,,0.00,0.0,WeatherDisplay:10.37,2013-02-28 11:58:00,
2013-02-28 04:03:00,46.2,41.9,30.35,North,9,0.0,0.0,85,0.00,,,0.00,0.0,WeatherDisplay:10.37,2013-02-28 12:03:00,
2013-02-28 04:08:00,46.5,42.2,30.35,North,9,0.0,0.0,85,0.00,,,0.00,0.0,WeatherDisplay:10.37,2013-02-28 12:08:00,
2013-02-28 04:13:00,46.3,42.0,30.35,North,9,0.0,0.0,85,0.00,,,0.00,0.0,WeatherDisplay:10.37,2013-02-28 12:13:00,
2013-02-28 04:18:00,46.1,41.8,30.35,North,9,0.0,0.0,85,0.00,,,0.00,0.0,WeatherDisplay:10.37,2013-02-28 12:18:00,
2013-02-28 04:23:00,46.1,41.8,30.35,North,9,0.0,0.0,85,0.00,,,0.00,0.0,WeatherDisplay:10.37,2013-02-28 12:23:00,
2013-02-28 04:28:00,46.2,41.9,30.35,North,9,0.0,0.0,85,0.00,,,0.00,0.0,WeatherDisplay:10.37,2013-02-28 12:28:00,
2013-02-28 04:33:00,46.2,43.1,30.35,North,9,0.0,0.0,89,0.00,,,0.00,0.0,WeatherDisplay:10.37,2013-02-28 12:33:00,
2013-02-28 04:38:00,46.2,41.9,30.35,North,9,0.0,0.0,85,0.00,,,0.00,0.0,WeatherDisplay:10.37,2013-02-28 12:38:00,
2013-02-28 04:43:00,46.3,42.0,30.35,North,9,0.0,0.0,85,0.00,,,0.00,0.0,WeatherDisplay:10.37,2013-02-28 12:43:00,
2013-02-28 04:48:00,46.3,42.0,30.36,North,9,0.0,0.0,85,0.00,,,0.00,0.0,WeatherDisplay:10.37,2013-02-28 12:48:00,
2013-02-28 04:53:00,46.3,42.0,30.36,North,9,0.0,0.0,85,0.00,,,0.00,0.0,WeatherDisplay:10.37,2013-02-28 12:53:00,
2013-02-28 04:58:00,46.0,41.7,30.36,North,9,0.0,0.0,85,0.00,,,0.00,0.0,WeatherDisplay:10.37,2013-02-28 12:58:00,
2013-02-28 05:03:00,45.9,41.9,30.36,North,9,0.0,0.0,86,0.00,,,0.00,0.0,WeatherDisplay:10.37,2013-02-28 13:03:00,
2013-02-28 05:08:00,46.2,42.2,30.37,North,9,0.0,0.0,86,0.00,,,0.00,0.0,WeatherDisplay:10.37,2013-02-28 13:08:00,
2013-02-28 05:13:00,46.0,41.7,30.37,North,9,0.0,0.0,85,0.00,,,0.00,0.0,WeatherDisplay:10.37,2013-02-28 13:13:00,
2013-02-28 05:18:00,45.9,41.9,30.37,North,9,0.0,0.0,86,0.00,,,0.00,0.0,WeatherDisplay:10.37,2013-02-28 13:18:00,
2013-02-28 05:23:00,45.8,41.9,30.37,North,9,0.0,0.0,86,0.00,,,0.00,0.0,WeatherDisplay:10.37,2013-02-28 13:23:00,
2013-02-28 05:28:00,45.9,41.9,30.37,North,9,0.0,0.0,86,0.00,,,0.00,0.0,WeatherDisplay:10.37,2013-02-28 13:28:00,
2013-02-28 05:33:00,45.9,41.9,30.37,North,9,0.0,0.0,86,0.00,,,0.00,0.0,WeatherDisplay:10.37,2013-02-28 13:33:00,
2013-02-28 05:38:00,46.1,42.1,30.38,North,9,0.0,0.0,86,0.00,,,0.00,0.0,WeatherDisplay:10.37,2013-02-28 13:38:00,
2013-02-28 05:43:00,46.3,42.3,30.38,North,9,0.0,0.0,86,0.00,,,0.00,0.0,WeatherDisplay:10.37,2013-02-28 13:43:00,
2013-02-28 05:48:00,46.2,42.2,30.38,North,9,0.0,0.0,86,0.00,,,0.00,0.0,WeatherDisplay:10.37,2013-02-28 13:48:00,
2013-02-28 05:53:00,46.2,42.2,30.39,North,9,0.0,0.0,86,0.00,,,0.00,0.0,WeatherDisplay:10.37,2013-02-28 13:53:00,
2013-02-28 05:58:00,46.3,42.3,30.39,North,9,0.0,0.0,86,0.00,,,0.00,0.0,WeatherDisplay:10.37,2013-02-28 13:58:00,
2013-02-28 06:03:00,46.3,42.3,30.38,North,9,0.0,0.0,86,0.00,,,0.00,0.0,WeatherDisplay:10.37,2013-02-28 14:03:00,
2013-02-28 06:08:00,46.3,42.3,30.38,North,9,0.0,0.0,86,0.00,,,0.00,0.0,WeatherDisplay:10.37,2013-02-28 14:08:00,
2013-02-28 06:13:00,46.3,42.3,30.38,North,9,0.0,0.0,86,0.00,,,0.00,0.0,WeatherDisplay:10.37,2013-02-28 14:13:00,
2013-02-28 06:18:00,46.4,42.4,30.38,North,9,0.0,0.0,86,0.00,,,0.00,0.0,WeatherDisplay:10.37,2013-02-28 14:18:00,
2013-02-28 06:23:00,46.5,42.5,30.39,North,9,0.0,0.0,86,0.00,,,0.00,0.0,WeatherDisplay:10.37,2013-02-28 14:23:00,
2013-02-28 06:28:00,46.6,42.6,30.39,North,9,0.0,0.0,86,0.00,,,0.00,0.0,WeatherDisplay:10.37,2013-02-28 14:28:00,
2013-02-28 06:33:00,46.5,42.5,30.38,North,9,0.0,0.0,86,0.00,,,0.00,0.0,WeatherDisplay:10.37,2013-02-28 14:33:00,
2013-02-28 06:38:00,46.5,42.5,30.38,North,9,0.0,0.0,86,0.00,,,0.00,0.0,WeatherDisplay:10.37,2013-02-28 14:38:00,
2013-02-28 06:43:00,46.6,42.6,30.39,North,9,0.0,0.0,86,0.00,,,0.00,0.0,WeatherDisplay:10.37,2013-02-28 14:43:00,
2013-02-28 06:48:00,46.6,42.6,30.39,North,9,0.0,0.0,86,0.00,,,0.00,5.0,WeatherDisplay:10.37,2013-02-28 14:48:00,
2013-02-28 06:53:00,46.7,42.7,30.39,North,9,0.0,0.0,86,0.00,CLR,,0.00,9.0,WeatherDisplay:10.37,2013-02-28 14:53:00,
2013-02-28 06:58:00,46.8,42.8,30.39,North,9,0.0,0.0,86,0.00,FEW,,0.00,14.0,WeatherDisplay:10.37,2013-02-28 14:58:00,
2013-02-28 07:03:00,47.1,43.1,30.39,North,9,0.0,0.0,86,0.00,SCT,,0.00,23.0,WeatherDisplay:10.37,2013-02-28 15:03:00,
2013-02-28 07:08:00,47.4,43.4,30.39,North,9,0.0,0.0,86,0.00,SCT,,0.00,21.0,WeatherDisplay:10.37,2013-02-28 15:08:00,
2013-02-28 07:13:00,47.5,43.5,30.39,North,9,0.0,0.0,86,0.00,SCT,,0.00,37.0,WeatherDisplay:10.37,2013-02-28 15:13:00,
2013-02-28 07:18:00,47.7,43.7,30.39,North,9,0.0,0.0,86,0.00,SCT,,0.00,40.0,WeatherDisplay:10.37,2013-02-28 15:18:00,
2013-02-28 07:23:00,48.2,44.2,30.39,North,9,1.0,2.3,86,0.00,SCT,,0.00,40.0,WeatherDisplay:10.37,2013-02-28 15:23:00,
2013-02-28 07:28:00,48.8,44.8,30.39,North,9,0.9,2.3,86,0.00,BKN,,0.00,37.0,WeatherDisplay:10.37,2013-02-28 15:28:00,
2013-02-28 07:33:00,49.0,44.7,30.40,North,9,0.0,0.0,85,0.00,SCT,,0.00,54.0,WeatherDisplay:10.37,2013-02-28 15:33:00,
2013-02-28 07:38:00,49.4,45.1,30.40,North,9,0.0,0.0,85,0.00,SCT,,0.00,63.0,WeatherDisplay:10.37,2013-02-28 15:38:00,
2013-02-28 07:43:00,49.5,44.9,30.40,North,9,0.1,1.2,84,0.00,SCT,,0.00,67.0,WeatherDisplay:10.37,2013-02-28 15:43:00,
2013-02-28 07:48:00,49.5,44.9,30.40,North,9,0.0,0.0,84,0.00,BKN,,0.00,67.0,WeatherDisplay:10.37,2013-02-28 15:48:00,
2013-02-28 07:53:00,49.7,45.1,30.40,North,9,0.0,0.0,84,0.00,BKN,,0.00,67.0,WeatherDisplay:10.37,2013-02-28 15:53:00,
2013-02-28 07:58:00,49.8,44.8,30.40,North,9,0.2,1.2,83,0.00,BKN,,0.00,65.0,WeatherDisplay:10.37,2013-02-28 15:58:00,
2013-02-28 08:03:00,49.8,44.8,30.40,North,9,0.0,0.0,83,0.00,BKN,,0.00,65.0,WeatherDisplay:10.37,2013-02-28 16:03:00,
2013-02-28 08:08:00,49.8,44.8,30.41,North,9,0.0,0.0,83,0.00,BKN,,0.00,62.0,WeatherDisplay:10.37,2013-02-28 16:08:00,
2013-02-28 08:13:00,50.2,45.2,30.41,North,9,0.0,0.0,83,0.00,BKN,,0.00,47.0,WeatherDisplay:10.37,2013-02-28 16:13:00,
2013-02-28 08:18:00,50.4,45.4,30.41,North,9,0.0,0.0,83,0.00,BKN,,0.00,118.0,WeatherDisplay:10.37,2013-02-28 16:18:00,
2013-02-28 08:24:00,50.7,45.4,30.41,North,9,0.0,0.0,82,0.00,CLR,,0.00,287.0,WeatherDisplay:10.37,2013-02-28 16:24:00,
2013-02-28 08:29:00,51.7,46.7,30.41,North,9,0.0,0.0,83,0.00,CLR,,0.00,299.0,WeatherDisplay:10.37,2013-02-28 16:29:00,
2013-02-28 08:34:00,52.5,46.8,30.41,North,9,0.2,1.2,81,0.00,CLR,,0.00,316.0,WeatherDisplay:10.37,2013-02-28 16:34:00,
2013-02-28 08:39:00,53.1,47.1,30.41,North,9,0.2,1.2,80,0.00,CLR,,0.00,334.0,WeatherDisplay:10.37,2013-02-28 16:39:00,
2013-02-28 08:44:00,54.6,47.5,30.41,North,9,0.1,0.0,77,0.00,CLR,,0.00,352.0,WeatherDisplay:10.37,2013-02-28 16:44:00,
2013-02-28 08:50:00,54.9,47.5,30.42,North,9,0.8,1.2,76,0.00,CLR,,0.00,369.0,WeatherDisplay:10.37,2013-02-28 16:50:00,
2013-02-28 08:55:00,56.0,47.5,30.42,North,9,1.3,3.5,73,0.00,CLR,,0.00,385.0,WeatherDisplay:10.37,2013-02-28 16:55:00,
2013-02-28 09:00:00,56.5,47.6,30.42,North,9,0.7,2.3,72,0.00,CLR,,0.00,404.0,WeatherDisplay:10.37,2013-02-28 17:00:00,
2013-02-28 09:05:00,57.7,48.0,30.42,North,9,0.9,2.3,70,0.00,CLR,,0.00,424.0,WeatherDisplay:10.37,2013-02-28 17:05:00,
2013-02-28 09:10:00,58.1,48.0,30.42,North,9,1.4,4.6,69,0.00,CLR,,0.00,438.0,WeatherDisplay:10.37,2013-02-28 17:10:00,
2013-02-28 09:15:00,58.7,48.2,30.42,North,9,0.2,2.3,68,0.00,CLR,,0.00,450.0,WeatherDisplay:10.37,2013-02-28 17:15:00,
2013-02-28 09:20:00,58.5,47.6,30.42,North,9,0.4,1.2,67,0.00,CLR,,0.00,462.0,WeatherDisplay:10.37,2013-02-28 17:20:00,
2013-02-28 09:25:00,59.0,48.4,30.42,North,9,0.5,1.2,68,0.00,CLR,,0.00,480.0,WeatherDisplay:10.37,2013-02-28 17:25:00,
2013-02-28 09:30:00,59.4,48.0,30.42,North,9,0.4,2.3,66,0.00,CLR,,0.00,494.0,WeatherDisplay:10.37,2013-02-28 17:30:00,
2013-02-28 09:35:00,58.4,47.5,30.42,North,9,1.2,3.5,67,0.00,CLR,,0.00,504.0,WeatherDisplay:10.37,2013-02-28 17:35:00,
2013-02-28 09:41:00,58.8,48.3,30.42,North,9,1.0,2.3,68,0.00,CLR,,0.00,520.0,WeatherDisplay:10.37,2013-02-28 17:41:00,
2013-02-28 09:46:00,59.3,47.9,30.42,North,9,1.4,3.5,66,0.00,CLR,,0.00,536.0,WeatherDisplay:10.37,2013-02-28 17:46:00,
2013-02-28 09:51:00,59.4,48.4,30.42,North,9,3.2,5.8,67,0.00,CLR,,0.00,550.0,WeatherDisplay:10.37,2013-02-28 17:51:00,
2013-02-28 09:56:00,59.3,48.3,30.42,North,9,1.8,5.0,67,0.00,CLR,,0.00,566.0,WeatherDisplay:10.37,2013-02-28 17:56:00,
2013-02-28 10:01:00,59.4,48.8,30.42,NNE,12,1.5,3.5,68,0.00,CLR,,0.00,577.0,WeatherDisplay:10.37,2013-02-28 18:01:00,
2013-02-28 10:06:00,60.3,49.3,30.42,NNE,19,4.7,8.0,67,0.00,CLR,,0.00,584.0,WeatherDisplay:10.37,2013-02-28 18:06:00,
2013-02-28 10:12:00,59.8,48.4,30.42,NE,34,3.9,5.8,66,0.00,CLR,,0.00,596.0,WeatherDisplay:10.37,2013-02-28 18:12:00,
2013-02-28 10:17:00,59.7,48.7,30.42,NE,37,1.7,3.5,67,0.00,CLR,,0.00,608.0,WeatherDisplay:10.37,2013-02-28 18:17:00,
2013-02-28 10:22:00,60.3,49.3,30.42,NE,45,3.5,5.0,67,0.00,CLR,,0.00,619.0,WeatherDisplay:10.37,2013-02-28 18:22:00,
2013-02-28 10:28:00,60.3,48.9,30.42,NE,45,1.2,3.5,66,0.00,CLR,,0.00,636.0,WeatherDisplay:10.37,2013-02-28 18:28:00,
2013-02-28 10:33:00,60.5,49.1,30.42,NE,45,2.0,3.5,66,0.00,CLR,,0.00,650.0,WeatherDisplay:10.37,2013-02-28 18:33:00,
2013-02-28 10:38:00,61.4,49.1,30.42,NE,45,2.1,3.5,64,0.00,CLR,,0.00,661.0,WeatherDisplay:10.37,2013-02-28 18:38:00,
2013-02-28 10:44:00,61.0,48.7,30.42,NE,45,1.9,2.3,64,0.00,CLR,,0.00,670.0,WeatherDisplay:10.37,2013-02-28 18:44:00,
2013-02-28 10:49:00,60.9,48.2,30.42,NE,49,4.3,6.9,63,0.00,CLR,,0.00,677.0,WeatherDisplay:10.37,2013-02-28 18:49:00,
2013-02-28 10:54:00,60.5,48.7,30.41,NE,51,3.2,4.6,65,0.00,CLR,,0.00,687.0,WeatherDisplay:10.37,2013-02-28 18:54:00,
2013-02-28 11:01:00,60.4,48.2,30.41,NE,49,5.0,7.0,64,0.00,CLR,,0.00,696.0,WeatherDisplay:10.37,2013-02-28 19:01:00,
2013-02-28 11:06:00,60.9,49.1,30.41,NE,46,3.0,7.0,65,0.00,CLR,,0.00,701.0,WeatherDisplay:10.37,2013-02-28 19:06:00,
2013-02-28 11:11:00,60.6,48.8,30.41,NE,45,1.0,7.0,65,0.00,CLR,,0.00,705.0,WeatherDisplay:10.37,2013-02-28 19:11:00,
2013-02-28 11:13:00,61.2,48.9,30.41,NE,53,2.6,3.5,64,0.00,CLR,,0.00,710.0,WeatherDisplay:10.37,2013-02-28 19:13:00,
2013-02-28 11:18:00,61.9,49.2,30.41,NE,53,0.8,3.5,63,0.00,CLR,,0.00,719.0,WeatherDisplay:10.37,2013-02-28 19:18:00,
2013-02-28 11:23:00,61.1,48.4,30.41,NE,54,2.5,3.5,63,0.00,CLR,,0.00,728.0,WeatherDisplay:10.37,2013-02-28 19:23:00,
2013-02-28 11:28:00,61.2,48.5,30.40,NE,54,0.8,3.5,63,0.00,CLR,,0.00,721.0,WeatherDisplay:10.37,2013-02-28 19:28:00,
2013-02-28 11:33:00,61.6,48.9,30.41,NE,53,4.0,4.6,63,0.00,CLR,,0.00,728.0,WeatherDisplay:10.37,2013-02-28 19:33:00,
2013-02-28 11:38:00,62.3,49.5,30.41,NE,55,3.0,4.6,63,0.00,CLR,,0.00,742.0,WeatherDisplay:10.37,2013-02-28 19:38:00,
2013-02-28 11:43:00,62.5,49.3,30.41,NE,55,1.0,3.5,62,0.00,CLR,,0.00,742.0,WeatherDisplay:10.37,2013-02-28 19:43:00,
2013-02-28 11:48:00,62.7,49.5,30.40,NE,55,0.9,3.5,62,0.00,CLR,,0.00,747.0,WeatherDisplay:10.37,2013-02-28 19:48:00,
2013-02-28 11:53:00,63.8,49.6,30.40,NE,50,1.9,4.6,60,0.00,CLR,,0.00,756.0,WeatherDisplay:10.37,2013-02-28 19:53:00,
2013-02-28 11:58:00,62.8,49.1,30.40,NE,48,1.2,4.6,61,0.00,CLR,,0.00,754.0,WeatherDisplay:10.37,2013-02-28 19:58:00,
2013-02-28 12:03:00,62.0,49.3,30.40,East,101,3.7,5.8,63,0.00,CLR,,0.00,758.0,WeatherDisplay:10.37,2013-02-28 20:03:00,
2013-02-28 12:08:00,62.0,48.8,30.40,SE,132,3.6,5.8,62,0.00,CLR,,0.00,763.0,WeatherDisplay:10.37,2013-02-28 20:08:00,
2013-02-28 12:13:00,61.7,49.4,30.40,SSE,149,2.1,5.8,64,0.00,CLR,,0.00,765.0,WeatherDisplay:10.37,2013-02-28 20:13:00,
2013-02-28 12:18:00,63.4,49.7,30.40,SE,142,2.3,4.6,61,0.00,CLR,,0.00,817.0,WeatherDisplay:10.37,2013-02-28 20:18:00,
2013-02-28 12:23:00,63.1,49.4,30.40,SE,133,4.6,6.9,61,0.00,CLR,,0.00,993.0,WeatherDisplay:10.37,2013-02-28 20:23:00,
2013-02-28 12:28:00,63.8,50.5,30.40,SE,132,2.2,3.5,62,0.00,SCT,,0.00,446.0,WeatherDisplay:10.37,2013-02-28 20:28:00,
2013-02-28 12:33:00,64.3,49.7,30.40,SE,132,3.4,4.6,59,0.00,BKN,,0.00,348.0,WeatherDisplay:10.37,2013-02-28 20:33:00,
2013-02-28 12:38:00,62.8,49.1,30.40,SE,132,2.0,2.3,61,0.00,SCT,,0.00,436.0,WeatherDisplay:10.37,2013-02-28 20:38:00,
2013-02-28 12:43:00,63.1,49.9,30.39,SE,133,0.6,3.5,62,0.00,SCT,,0.00,761.0,WeatherDisplay:10.37,2013-02-28 20:43:00,
2013-02-28 12:48:00,64.3,49.7,30.39,SE,139,3.8,4.6,59,0.00,CLR,,0.00,724.0,WeatherDisplay:10.37,2013-02-28 20:48:00,
2013-02-28 12:53:00,65.9,49.8,30.39,ENE,66,1.5,4.6,56,0.00,CLR,,0.00,770.0,WeatherDisplay:10.37,2013-02-28 20:53:00,
2013-02-28 12:58:00,66.4,48.7,30.38,NNE,23,6.4,11.5,53,0.00,CLR,,0.00,780.0,WeatherDisplay:10.37,2013-02-28 20:58:00,
2013-02-28 13:03:00,66.5,49.3,30.38,NNE,30,5.0,10.4,54,0.00,CLR,,0.00,814.0,WeatherDisplay:10.37,2013-02-28 21:03:00,
2013-02-28 13:08:00,67.1,49.4,30.38,North,5,1.5,4.6,53,0.00,CLR,,0.00,798.0,WeatherDisplay:10.37,2013-02-28 21:08:00,
2013-02-28 13:13:00,67.4,48.6,30.37,NNE,30,4.9,7.0,51,0.00,CLR,,0.00,802.0,WeatherDisplay:10.37,2013-02-28 21:13:00,
2013-02-28 13:18:00,68.0,49.2,30.37,NNE,14,2.9,3.5,51,0.00,CLR,,0.00,779.0,WeatherDisplay:10.37,2013-02-28 21:18:00,
2013-02-28 13:23:00,68.0,48.1,30.36,North,360,2.9,5.8,49,0.00,CLR,,0.00,770.0,WeatherDisplay:10.37,2013-02-28 21:23:00,
2013-02-28 13:28:00,67.8,47.9,30.36,NNE,19,4.6,5.8,49,0.00,CLR,,0.00,745.0,WeatherDisplay:10.37,2013-02-28 21:28:00,
2013-02-28 13:33:00,67.8,47.9,30.36,North,360,4.4,6.9,49,0.00,CLR,,0.00,733.0,WeatherDisplay:10.37,2013-02-28 21:33:00,
2013-02-28 13:38:00,68.1,48.2,30.36,North,10,4.1,4.6,49,0.00,CLR,,0.00,722.0,WeatherDisplay:10.37,2013-02-28 21:38:00,
2013-02-28 13:43:00,67.7,48.4,30.36,NNE,24,6.4,6.4,50,0.00,CLR,,0.00,715.0,WeatherDisplay:10.37,2013-02-28 21:43:00,
2013-02-28 13:48:00,67.7,48.9,30.36,NNE,22,5.9,9.2,51,0.00,CLR,,0.00,710.0,WeatherDisplay:10.37,2013-02-28 21:48:00,
2013-02-28 13:53:00,68.5,49.1,30.36,NNW,348,5.7,8.1,50,0.00,CLR,,0.00,701.0,WeatherDisplay:10.37,2013-02-28 21:53:00,
2013-02-28 13:58:00,67.0,49.8,30.36,NE,47,7.0,10.4,54,0.00,CLR,,0.00,693.0,WeatherDisplay:10.37,2013-02-28 21:58:00,
2013-02-28 14:03:00,65.4,49.3,30.36,ENE,57,6.2,6.9,56,0.00,CLR,,0.00,687.0,WeatherDisplay:10.37,2013-02-28 22:03:00,
2013-02-28 14:08:00,64.5,49.4,30.36,ENE,61,1.8,3.5,58,0.00,CLR,,0.00,670.0,WeatherDisplay:10.37,2013-02-28 22:08:00,
2013-02-28 14:13:00,64.9,50.2,30.35,ENE,61,0.8,2.3,59,0.00,CLR,,0.00,666.0,WeatherDisplay:10.37,2013-02-28 22:13:00,
2013-02-28 14:18:00,65.8,50.6,30.36,ENE,71,1.1,3.5,58,0.00,CLR,,0.00,654.0,WeatherDisplay:10.37,2013-02-28 22:18:00,
2013-02-28 14:23:00,67.0,50.8,30.36,NNE,32,2.9,5.0,56,0.00,CLR,,0.00,642.0,WeatherDisplay:10.37,2013-02-28 22:23:00,
2013-02-28 14:28:00,66.6,49.9,30.36,NNE,29,6.2,9.2,55,0.00,CLR,,0.00,638.0,WeatherDisplay:10.37,2013-02-28 22:28:00,
2013-02-28 14:33:00,65.6,50.0,30.36,NNE,32,4.1,5.8,57,0.00,CLR,,0.00,619.0,WeatherDisplay:10.37,2013-02-28 22:33:00,
2013-02-28 14:38:00,65.1,50.0,30.36,NE,40,0.5,3.5,58,0.00,CLR,,0.00,619.0,WeatherDisplay:10.37,2013-02-28 22:38:00,
2013-02-28 14:43:00,66.7,51.0,30.36,NE,40,1.0,3.5,57,0.00,CLR,,0.00,571.0,WeatherDisplay:10.37,2013-02-28 22:43:00,
2013-02-28 14:48:00,67.0,50.3,30.36,NE,35,1.4,4.6,55,0.00,CLR,,0.00,413.0,WeatherDisplay:10.37,2013-02-28 22:48:00,
2013-02-28 14:53:00,66.4,49.2,30.36,NW,317,1.2,3.5,54,0.00,CLR,,0.00,429.0,WeatherDisplay:10.37,2013-02-28 22:53:00,
2013-02-28 14:58:00,66.5,49.3,30.36,WNW,286,2.8,3.5,54,0.00,CLR,,0.00,577.0,WeatherDisplay:10.37,2013-02-28 22:58:00,
2013-02-28 15:03:00,66.4,49.2,30.36,WNW,287,4.3,4.6,54,0.00,CLR,,0.00,584.0,WeatherDisplay:10.37,2013-02-28 23:03:00,
2013-02-28 15:08:00,65.9,49.3,30.36,West,279,3.7,9.2,55,0.00,CLR,,0.00,566.0,WeatherDisplay:10.37,2013-02-28 23:08:00,
2013-02-28 15:13:00,65.7,49.6,30.37,West,268,0.7,2.3,56,0.00,CLR,,0.00,548.0,WeatherDisplay:10.37,2013-02-28 23:13:00,
2013-02-28 15:18:00,65.6,49.5,30.36,WNW,300,2.9,4.6,56,0.00,CLR,,0.00,541.0,WeatherDisplay:10.37,2013-02-28 23:18:00,
2013-02-28 15:23:00,65.8,49.2,30.36,West,277,3.5,4.6,55,0.00,CLR,,0.00,504.0,WeatherDisplay:10.37,2013-02-28 23:23:00,
2013-02-28 15:28:00,65.7,49.6,30.36,WNW,286,1.7,4.6,56,0.00,CLR,,0.00,316.0,WeatherDisplay:10.37,2013-02-28 23:28:00,
2013-02-28 15:33:00,65.5,49.4,30.36,North,360,1.1,2.3,56,0.00,SCT,,0.00,260.0,WeatherDisplay:10.37,2013-02-28 23:33:00,
2013-02-28 15:38:00,64.8,49.2,30.36,NNE,13,0.7,3.5,57,0.00,SCT,,0.00,244.0,WeatherDisplay:10.37,2013-02-28 23:38:00,
2013-02-28 15:43:00,64.9,49.3,30.36,ENE,71,1.0,2.3,57,0.00,SCT,,0.00,206.0,WeatherDisplay:10.37,2013-02-28 23:43:00,
2013-02-28 15:48:00,64.3,49.2,30.36,South,190,0.7,2.3,58,0.00,BKN,,0.00,137.0,WeatherDisplay:10.37,2013-02-28 23:48:00,
2013-02-28 15:53:00,64.2,49.1,30.36,NNE,13,1.7,3.5,58,0.00,BKN,,0.00,81.0,WeatherDisplay:10.37,2013-02-28 23:53:00,
2013-02-28 15:59:00,64.1,49.0,30.36,NW,321,1.3,3.5,58,0.00,BKN,,0.00,132.0,WeatherDisplay:10.37,2013-02-28 23:59:00,
2013-02-28 16:04:00,64.1,49.5,30.35,WNW,293,1.7,3.5,59,0.00,BKN,,0.00,130.0,WeatherDisplay:10.37,2013-03-01 00:04:00,
2013-02-28 16:09:00,63.7,49.1,30.35,NNE,13,1.2,2.3,59,0.00,BKN,,0.00,135.0,WeatherDisplay:10.37,2013-03-01 00:09:00,
2013-02-28 16:14:00,63.4,48.8,30.35,West,273,0.3,2.3,59,0.00,SCT,,0.00,135.0,WeatherDisplay:10.37,2013-03-01 00:14:00,
2013-02-28 16:19:00,63.3,49.2,30.35,NW,322,1.7,3.5,60,0.00,BKN,,0.00,47.0,WeatherDisplay:10.37,2013-03-01 00:19:00,
2013-02-28 16:24:00,63.4,49.3,30.35,NNW,333,0.0,2.3,60,0.00,BKN,,0.00,40.0,WeatherDisplay:10.37,2013-03-01 00:24:00,
2013-02-28 16:29:00,63.2,49.1,30.35,NNW,330,0.3,3.5,60,0.00,BKN,,0.00,37.0,WeatherDisplay:10.37,2013-03-01 00:29:00,
2013-02-28 16:34:00,63.1,49.0,30.35,North,5,0.8,2.3,60,0.00,BKN,,0.00,33.0,WeatherDisplay:10.37,2013-03-01 00:34:00,
2013-02-28 16:39:00,62.8,49.1,30.35,North,5,0.5,1.2,61,0.00,BKN,,0.00,32.0,WeatherDisplay:10.37,2013-03-01 00:39:00,
2013-02-28 16:44:00,62.8,49.1,30.35,WNW,291,1.2,3.5,61,0.00,BKN,,0.00,33.0,WeatherDisplay:10.37,2013-03-01 00:44:00,
2013-02-28 16:49:00,62.6,49.0,30.35,WNW,290,0.0,1.0,61,0.00,BKN,,0.00,35.0,WeatherDisplay:10.37,2013-03-01 00:49:00,
2013-02-28 16:54:00,62.3,48.7,30.35,WNW,290,0.4,2.3,61,0.00,CLR,,0.00,102.0,WeatherDisplay:10.37,2013-03-01 00:54:00,
2013-02-28 16:59:00,62.1,48.9,30.35,WNW,286,1.9,3.5,62,0.00,BKN,,0.00,28.0,WeatherDisplay:10.37,2013-03-01 00:59:00,
2013-02-28 17:04:00,61.9,48.7,30.35,NE,40,0.4,1.2,62,0.00,BKN,,0.00,30.0,WeatherDisplay:10.37,2013-03-01 01:04:00,
2013-02-28 17:09:00,61.5,48.8,30.35,West,277,0.5,3.5,63,0.00,BKN,,0.00,21.0,WeatherDisplay:10.37,2013-03-01 01:09:00,
2013-02-28 17:14:00,61.2,48.5,30.35,NNE,19,0.6,3.5,63,0.00,BKN,,0.00,19.0,WeatherDisplay:10.37,2013-03-01 01:14:00,
2013-02-28 17:19:00,60.9,48.6,30.35,NNE,30,1.8,3.5,64,0.00,BKN,,0.00,18.0,WeatherDisplay:10.37,2013-03-01 01:19:00,
2013-02-28 17:24:00,60.6,48.4,30.35,North,11,0.1,0.0,64,0.00,BKN,,0.00,16.0,WeatherDisplay:10.37,2013-03-01 01:24:00,
2013-02-28 17:29:00,60.4,48.6,30.35,North,11,0.4,2.3,65,0.00,BKN,,0.00,16.0,WeatherDisplay:10.37,2013-03-01 01:29:00,
2013-02-28 17:34:00,60.1,48.3,30.35,WNW,300,2.3,3.5,65,0.00,BKN,,0.00,14.0,WeatherDisplay:10.37,2013-03-01 01:34:00,
2013-02-28 17:39:00,59.8,48.4,30.35,WNW,286,1.2,3.5,66,0.00,BKN,,0.00,12.0,WeatherDisplay:10.37,2013-03-01 01:39:00,
2013-02-28 17:44:00,59.5,48.5,30.35,WNW,284,0.0,1.2,67,0.00,SCT,,0.00,11.0,WeatherDisplay:10.37,2013-03-01 01:44:00,
2013-02-28 17:49:00,59.3,48.3,30.35,WNW,282,1.7,3.5,67,0.00,FEW,,0.00,9.0,WeatherDisplay:10.37,2013-03-01 01:49:00,
2013-02-28 17:54:00,59.1,48.1,30.35,WNW,284,1.7,4.6,67,0.00,,,0.00,7.0,WeatherDisplay:10.37,2013-03-01 01:54:00,
2013-02-28 17:59:00,58.8,48.3,30.36,WNW,285,0.2,1.2,68,0.00,,,0.00,5.0,WeatherDisplay:10.37,2013-03-01 01:59:00,
2013-02-28 18:04:00,58.3,48.2,30.36,WNW,285,0.9,2.3,69,0.00,,,0.00,0.0,WeatherDisplay:10.37,2013-03-01 02:04:00,
2013-02-28 18:09:00,57.9,48.2,30.36,WNW,284,0.0,0.0,70,0.00,,,0.00,0.0,WeatherDisplay:10.37,2013-03-01 02:09:00,
2013-02-28 18:14:00,57.6,48.3,30.36,WNW,284,0.2,1.2,71,0.00,,,0.00,0.0,WeatherDisplay:10.37,2013-03-01 02:14:00,
2013-02-28 18:19:00,57.5,47.8,30.36,WNW,283,0.3,2.3,70,0.00,,,0.00,0.0,WeatherDisplay:10.37,2013-03-01 02:19:00,
2013-02-28 18:24:00,57.3,48.0,30.36,WNW,283,1.4,6.9,71,0.00,,,0.00,0.0,WeatherDisplay:10.37,2013-03-01 02:24:00,
2013-02-28 18:29:00,57.0,48.1,30.36,WNW,283,0.4,3.5,72,0.00,,,0.00,0.0,WeatherDisplay:10.37,2013-03-01 02:29:00,
2013-02-28 18:34:00,56.8,47.9,30.36,WNW,283,0.0,0.0,72,0.00,,,0.00,0.0,WeatherDisplay:10.37,2013-03-01 02:34:00,
2013-02-28 18:39:00,56.5,47.9,30.36,WNW,283,0.1,1.2,73,0.00,,,0.00,0.0,WeatherDisplay:10.37,2013-03-01 02:39:00,
2013-02-28 18:44:00,56.2,47.7,30.36,WNW,283,1.7,3.5,73,0.00,,,0.00,0.0,WeatherDisplay:10.37,2013-03-01 02:44:00,
2013-02-28 18:49:00,55.6,47.8,30.37,WSW,253,1.0,3.0,75,0.00,,,0.00,0.0,WeatherDisplay:10.37,2013-03-01 02:49:00,
2013-02-28 18:54:00,55.1,48.0,30.37,WSW,252,0.2,2.3,77,0.00,,,0.00,0.0,WeatherDisplay:10.37,2013-03-01 02:54:00,
2013-02-28 18:59:00,55.0,48.3,30.37,SSW,208,3.0,4.6,78,0.00,,,0.00,0.0,WeatherDisplay:10.37,2013-03-01 02:59:00,
2013-02-28 19:04:00,55.1,48.4,30.37,SSW,205,1.7,3.5,78,0.00,,,0.00,0.0,WeatherDisplay:10.37,2013-03-01 03:04:00,
2013-02-28 19:10:00,55.1,48.4,30.37,SSW,205,0.9,3.5,78,0.00,,,0.00,0.0,WeatherDisplay:10.37,2013-03-01 03:10:00,
2013-02-28 19:15:00,55.0,48.3,30.38,SSW,205,0.0,1.2,78,0.00,,,0.00,0.0,WeatherDisplay:10.37,2013-03-01 03:15:00,
2013-02-28 19:20:00,54.8,48.1,30.38,SSW,205,1.3,2.3,78,0.00,,,0.00,0.0,WeatherDisplay:10.37,2013-03-01 03:20:00,
2013-02-28 19:25:00,54.4,47.7,30.38,SSW,205,0.0,0.0,78,0.00,,,0.00,0.0,WeatherDisplay:10.37,2013-03-01 03:25:00,
2013-02-28 19:30:00,54.2,47.8,30.38,SSW,205,0.1,1.2,79,0.00,,,0.00,0.0,WeatherDisplay:10.37,2013-03-01 03:30:00,
2013-02-28 19:35:00,53.7,47.3,30.38,SSW,205,0.1,1.2,79,0.00,,,0.00,0.0,WeatherDisplay:10.37,2013-03-01 03:35:00,
2013-02-28 19:40:00,53.4,47.0,30.38,SSW,205,0.0,0.0,79,0.00,,,0.00,0.0,WeatherDisplay:10.37,2013-03-01 03:40:00,
2013-02-28 19:46:00,53.4,47.4,30.38,SSW,205,0.0,0.0,80,0.00,,,0.00,0.0,WeatherDisplay:10.37,2013-03-01 03:46:00,
2013-02-28 19:51:00,53.2,47.2,30.38,SSW,205,0.0,0.0,80,0.00,,,0.00,0.0,WeatherDisplay:10.37,2013-03-01 03:51:00,
2013-02-28 19:56:00,52.9,46.9,30.39,SSW,205,0.0,0.0,80,0.00,,,0.00,0.0,WeatherDisplay:10.37,2013-03-01 03:56:00,
2013-02-28 20:01:00,52.7,47.0,30.39,SSW,205,0.3,1.2,81,0.00,,,0.00,0.0,WeatherDisplay:10.37,2013-03-01 04:01:00,
2013-02-28 20:06:00,52.5,46.8,30.39,SSW,205,0.0,0.0,81,0.00,CLR,,0.00,0.0,WeatherDisplay:10.37,2013-03-01 04:06:00,
2013-02-28 20:12:00,52.6,47.3,30.39,SSW,205,0.0,0.0,82,0.00,CLR,,0.00,0.0,WeatherDisplay:10.37,2013-03-01 04:12:00,
2013-02-28 20:17:00,52.6,47.3,30.39,SSW,205,0.0,0.0,82,0.00,CLR,,0.00,0.0,WeatherDisplay:10.37,2013-03-01 04:17:00,
2013-02-28 20:22:00,52.4,47.1,30.39,SSW,205,0.9,2.3,82,0.00,CLR,,0.00,0.0,WeatherDisplay:10.37,2013-03-01 04:22:00,
2013-02-28 20:27:00,52.2,46.5,30.39,SSW,205,0.0,0.0,81,0.00,CLR,,0.00,0.0,WeatherDisplay:10.37,2013-03-01 04:27:00,
2013-02-28 20:32:00,51.8,46.2,30.39,SSW,205,0.0,0.0,81,0.00,CLR,,0.00,0.0,WeatherDisplay:10.37,2013-03-01 04:32:00,
2013-02-28 20:37:00,51.6,46.3,30.39,SSW,205,1.1,2.3,82,0.00,CLR,,0.00,0.0,WeatherDisplay:10.37,2013-03-01 04:37:00,
2013-02-28 20:42:00,51.7,46.7,30.40,SSW,205,0.0,0.0,83,0.00,CLR,,0.00,0.0,WeatherDisplay:10.37,2013-03-01 04:42:00,
2013-02-28 20:47:00,51.6,46.3,30.40,SSW,205,0.4,1.0,82,0.00,CLR,,0.00,0.0,WeatherDisplay:10.37,2013-03-01 04:47:00,
2013-02-28 20:52:00,51.6,46.3,30.39,SSW,205,0.4,1.2,82,0.00,CLR,,0.00,0.0,WeatherDisplay:10.37,2013-03-01 04:52:00,
2013-02-28 20:57:00,51.6,46.3,30.39,SSW,205,0.0,0.0,82,0.00,CLR,,0.00,0.0,WeatherDisplay:10.37,2013-03-01 04:57:00,
2013-02-28 21:00:00,51.5,46.2,30.40,SSW,205,0.0,0.0,82,0.00,CLR,,0.00,0.0,WeatherDisplay:10.37,2013-03-01 05:00:00,
2013-02-28 21:03:00,51.3,46.0,30.40,SSW,205,0.1,0.0,82,0.00,CLR,,0.00,0.0,WeatherDisplay:10.37,2013-03-01 05:03:00,
2013-02-28 21:05:00,51.3,46.0,30.40,SSW,205,0.4,1.2,82,0.00,CLR,,0.00,0.0,WeatherDisplay:10.37,2013-03-01 05:05:00,
2013-02-28 21:10:00,51.3,46.0,30.40,SSW,205,0.2,1.2,82,0.00,CLR,,0.00,0.0,WeatherDisplay:10.37,2013-03-01 05:10:00,
2013-02-28 21:12:00,51.2,45.9,30.40,SSW,205,0.0,0.0,82,0.00,CLR,,0.00,0.0,WeatherDisplay:10.37,2013-03-01 05:12:00,
2013-02-28 21:17:00,51.1,45.8,30.40,SSW,205,0.0,0.0,82,0.00,CLR,,0.00,0.0,WeatherDisplay:10.37,2013-03-01 05:17:00,
2013-02-28 21:22:00,50.8,45.5,30.40,SSW,205,0.0,0.0,82,0.00,CLR,,0.00,0.0,WeatherDisplay:10.37,2013-03-01 05:22:00,
2013-02-28 21:27:00,50.6,45.6,30.40,SSW,205,0.1,2.3,83,0.00,CLR,,0.00,0.0,WeatherDisplay:10.37,2013-03-01 05:27:00,
2013-02-28 21:32:00,50.3,45.3,30.40,SSW,205,0.0,0.0,83,0.00,CLR,,0.00,0.0,WeatherDisplay:10.37,2013-03-01 05:32:00,
2013-02-28 21:37:00,50.1,45.1,30.40,SSW,205,0.0,1.2,83,0.00,CLR,,0.00,0.0,WeatherDisplay:10.37,2013-03-01 05:37:00,
2013-02-28 21:43:00,50.2,45.6,30.40,SSW,205,0.4,1.0,84,0.00,CLR,,0.00,0.0,WeatherDisplay:10.37,2013-03-01 05:43:00,
2013-02-28 21:48:00,50.3,45.6,30.40,SSW,205,0.0,1.2,84,0.00,CLR,,0.00,0.0,WeatherDisplay:10.37,2013-03-01 05:48:00,
2013-02-28 21:53:00,50.3,46.0,30.40,SSW,205,0.5,2.3,85,0.00,CLR,,0.00,0.0,WeatherDisplay:10.37,2013-03-01 05:53:00,
2013-02-28 21:58:00,49.9,45.3,30.41,SSW,205,1.5,2.3,84,0.00,CLR,,0.00,0.0,WeatherDisplay:10.37,2013-03-01 05:58:00,
2013-02-28 22:03:00,49.5,44.9,30.41,SSW,205,0.0,0.0,84,0.00,,,0.00,0.0,WeatherDisplay:10.37,2013-03-01 06:03:00,
2013-02-28 22:08:00,49.6,45.3,30.41,SSW,205,0.0,0.0,85,0.00,,,0.00,0.0,WeatherDisplay:10.37,2013-03-01 06:08:00,
2013-02-28 22:13:00,49.7,45.4,30.41,SSW,205,0.0,0.0,85,0.00,,,0.00,0.0,WeatherDisplay:10.37,2013-03-01 06:13:00,
2013-02-28 22:18:00,49.7,45.4,30.41,SSW,205,0.0,0.0,85,0.00,,,0.00,0.0,WeatherDisplay:10.37,2013-03-01 06:18:00,
2013-02-28 22:23:00,49.5,45.2,30.41,SSW,205,0.0,0.0,85,0.00,,,0.00,0.0,WeatherDisplay:10.37,2013-03-01 06:23:00,
2013-02-28 22:28:00,49.1,44.8,30.41,SSW,205,0.0,0.0,85,0.00,,,0.00,0.0,WeatherDisplay:10.37,2013-03-01 06:28:00,
2013-02-28 22:33:00,49.0,45.0,30.41,SSW,205,0.0,1.2,86,0.00,,,0.00,0.0,WeatherDisplay:10.37,2013-03-01 06:33:00,
2013-02-28 22:38:00,48.8,44.8,30.41,SSW,205,0.0,0.0,86,0.00,,,0.00,0.0,WeatherDisplay:10.37,2013-03-01 06:38:00,
2013-02-28 22:43:00,48.8,44.8,30.41,SSW,205,0.0,0.0,86,0.00,,,0.00,0.0,WeatherDisplay:10.37,2013-03-01 06:43:00,
2013-02-28 22:48:00,48.5,44.5,30.41,SSW,205,0.0,0.0,86,0.00,,,0.00,0.0,WeatherDisplay:10.37,2013-03-01 06:48:00,
2013-02-28 22:53:00,48.5,44.5,30.41,SSW,205,0.0,0.0,86,0.00,,,0.00,0.0,WeatherDisplay:10.37,2013-03-01 06:53:00,
2013-02-28 22:58:00,48.3,44.3,30.41,SSW,205,0.0,0.0,86,0.00,,,0.00,0.0,WeatherDisplay:10.37,2013-03-01 06:58:00,
2013-02-28 23:03:00,48.0,44.0,30.41,SSW,205,0.0,0.0,86,0.00,,,0.00,0.0,WeatherDisplay:10.37,2013-03-01 07:03:00,
2013-02-28 23:08:00,47.9,43.9,30.41,SSW,205,0.0,0.0,86,0.00,,,0.00,0.0,WeatherDisplay:10.37,2013-03-01 07:08:00,
2013-02-28 23:13:00,47.7,43.7,30.41,SSW,205,0.0,0.0,86,0.00,,,0.00,0.0,WeatherDisplay:10.37,2013-03-01 07:13:00,
2013-02-28 23:18:00,47.8,44.1,30.41,SSW,205,0.0,0.0,87,0.00,,,0.00,0.0,WeatherDisplay:10.37,2013-03-01 07:18:00,
2013-02-28 23:23:00,47.6,43.9,30.40,SSW,205,0.0,0.0,87,0.00,,,0.00,0.0,WeatherDisplay:10.37,2013-03-01 07:23:00,
2013-02-28 23:28:00,47.4,43.7,30.41,SSW,205,0.0,0.0,87,0.00,,,0.00,0.0,WeatherDisplay:10.37,2013-03-01 07:28:00,
2013-02-28 23:33:00,47.5,43.8,30.41,SSW,205,0.0,0.0,87,0.00,,,0.00,0.0,WeatherDisplay:10.37,2013-03-01 07:33:00,
2013-02-28 23:38:00,47.4,43.7,30.41,SSW,205,0.0,0.0,87,0.00,,,0.00,0.0,WeatherDisplay:10.37,2013-03-01 07:38:00,
2013-02-28 23:43:00,47.3,43.6,30.41,SSW,205,0.0,0.0,87,0.00,,,0.00,0.0,WeatherDisplay:10.37,2013-03-01 07:43:00,
2013-02-28 23:49:00,47.3,43.6,30.41,SSW,205,0.0,0.0,87,0.00,,,0.00,0.0,WeatherDisplay:10.37,2013-03-01 07:49:00,
2013-02-28 23:54:00,47.2,43.5,30.41,SSW,205,0.0,0.0,87,0.00,,,0.00,0.0,WeatherDisplay:10.37,2013-03-01 07:54:00,
2013-02-28 23:59:00,47.6,44.2,30.41,SSW,205,0.0,0.0,88,0.00,,,0.00,0.0,WeatherDisplay:10.37,2013-03-01 07:59:00,